createdAt,value
2023-03-15T00:02:55.620Z,99.90
2023-03-15T00:07:58.945Z,99.90
2023-03-15T00:13:01.469Z,99.90
2023-03-15T00:18:04.089Z,99.90
2023-03-15T00:23:06.685Z,99.90
2023-03-15T00:28:09.333Z,99.90
2023-03-15T00:33:13.999Z,99.90
2023-03-15T00:38:16.598Z,99.90
2023-03-15T00:43:19.204Z,99.90
2023-03-15T00:48:21.795Z,99.90
2023-03-15T00:53:24.280Z,99.90
2023-03-15T00:58:27.613Z,99.90
2023-03-15T01:03:30.151Z,99.90
2023-03-15T01:08:32.744Z,99.90
2023-03-15T01:13:36.151Z,99.90
2023-03-15T01:18:39.138Z,99.90
2023-03-15T01:23:42.305Z,99.90
2023-03-15T01:28:45.205Z,99.90
2023-03-15T01:33:48.052Z,99.90
2023-03-15T01:38:51.159Z,99.90
2023-03-15T01:43:58.556Z,99.90
2023-03-15T01:49:25.046Z,99.90
2023-03-15T01:55:06.207Z,99.90
2023-03-15T02:00:18.583Z,99.90
2023-03-15T02:05:36.944Z,99.90
2023-03-15T02:10:49.545Z,99.90
2023-03-15T02:15:53.987Z,99.90
2023-03-15T02:21:22.456Z,99.90
2023-03-15T02:26:34.889Z,99.90
2023-03-15T02:31:38.333Z,99.90
2023-03-15T02:36:41.248Z,99.90
2023-03-15T02:41:48.945Z,99.90
2023-03-15T02:46:53.661Z,99.90
2023-03-15T02:51:57.019Z,99.90
2023-03-15T02:56:59.685Z,99.90
2023-03-15T03:02:02.794Z,99.90
2023-03-15T03:07:06.234Z,99.90
2023-03-15T03:12:18.219Z,99.90
2023-03-15T03:17:20.889Z,99.90
2023-03-15T03:22:24.701Z,99.90
2023-03-15T03:27:27.232Z,99.90
2023-03-15T03:32:30.248Z,99.90
2023-03-15T03:37:35.947Z,99.90
2023-03-15T03:42:47.379Z,99.90
2023-03-15T03:47:53.346Z,99.90
2023-03-15T03:52:56.117Z,99.90
2023-03-15T03:58:03.537Z,99.90
2023-03-15T04:03:16.775Z,99.90
2023-03-15T04:08:25.586Z,99.90
2023-03-15T04:13:28.947Z,99.90
2023-03-15T04:18:33.880Z,99.90
2023-03-15T04:23:37.662Z,99.90
2023-03-15T04:28:51.156Z,99.90
2023-03-15T04:34:09.112Z,99.90
2023-03-15T04:39:30.910Z,99.90
2023-03-15T04:44:45.944Z,99.90
2023-03-15T04:50:07.380Z,99.90
2023-03-15T04:55:32.400Z,99.90
2023-03-15T05:00:53.334Z,99.90
2023-03-15T05:06:22.709Z,99.90
2023-03-15T05:11:43.790Z,99.90
2023-03-15T05:17:04.902Z,99.90
2023-03-15T05:22:28.410Z,99.90
2023-03-15T05:27:52.901Z,99.90
2023-03-15T05:33:21.253Z,99.90
2023-03-15T05:38:46.295Z,99.90
2023-03-15T05:44:11.546Z,99.90
2023-03-15T05:49:36.604Z,99.90
2023-03-15T05:54:54.292Z,99.90
2023-03-15T06:00:20.756Z,99.90
2023-03-15T06:05:27.734Z,76.90
2023-03-15T06:10:32.012Z,78.40
2023-03-15T06:15:40.225Z,85.10
2023-03-15T06:20:44.674Z,83.10
2023-03-15T06:25:50.456Z,86.60
2023-03-15T06:30:54.913Z,91.50
2023-03-15T06:36:04.306Z,82.50
2023-03-15T06:41:07.731Z,86.20
2023-03-15T06:46:12.104Z,88.30
2023-03-15T06:51:14.785Z,85.50
2023-03-15T06:56:17.561Z,87.40
2023-03-15T07:01:20.168Z,87.40
2023-03-15T07:06:23.023Z,90.20
2023-03-15T07:11:25.631Z,83.60
2023-03-15T07:16:28.270Z,86.20
2023-03-15T07:21:30.853Z,92.50
2023-03-15T07:26:33.506Z,90.10
2023-03-15T07:31:36.032Z,90.50
2023-03-15T07:36:38.692Z,93.00
2023-03-15T07:41:41.236Z,82.10
2023-03-15T07:46:56.157Z,87.60
2023-03-15T07:51:58.804Z,91.20
2023-03-15T07:57:01.715Z,83.80
2023-03-15T08:02:04.702Z,75.00
2023-03-15T08:07:07.723Z,98.00
2023-03-15T08:12:10.628Z,93.80
2023-03-15T08:17:16.257Z,95.20
2023-03-15T08:22:19.169Z,73.00
2023-03-15T08:27:21.788Z,94.90
2023-03-15T08:32:24.383Z,86.50
2023-03-15T08:37:27.092Z,90.50
2023-03-15T08:42:29.666Z,93.30
2023-03-15T08:47:32.223Z,93.00
2023-03-15T08:52:35.185Z,93.80
2023-03-15T08:57:37.761Z,88.70
2023-03-15T09:02:40.382Z,94.50
2023-03-15T09:07:43.694Z,81.70
2023-03-15T09:12:49.258Z,91.60
2023-03-15T09:17:52.036Z,84.50
2023-03-15T09:22:56.739Z,95.40
2023-03-15T09:27:59.323Z,95.70
2023-03-15T09:33:02.007Z,92.90
2023-03-15T09:38:04.547Z,96.60
2023-03-15T09:43:07.041Z,98.00
2023-03-15T09:48:28.045Z,95.00
2023-03-15T09:54:06.030Z,93.10
2023-03-15T09:59:10.476Z,93.10
2023-03-15T10:04:16.870Z,85.80
2023-03-15T10:09:23.029Z,89.20
2023-03-15T10:14:28.403Z,94.30
2023-03-15T10:19:46.719Z,69.70
2023-03-15T10:24:59.345Z,92.30
2023-03-15T10:30:13.192Z,88.20
2023-03-15T10:35:18.285Z,85.70
2023-03-15T10:40:59.935Z,89.60
2023-03-15T10:46:08.647Z,69.20
2023-03-15T10:51:23.499Z,82.10
2023-03-15T10:56:32.367Z,72.00
2023-03-15T11:01:35.014Z,94.00
2023-03-15T11:06:44.534Z,94.70
2023-03-15T11:12:00.050Z,73.40
2023-03-15T11:17:05.448Z,70.00
2023-03-15T11:22:12.723Z,94.10
2023-03-15T11:27:19.102Z,96.80
2023-03-15T11:32:25.137Z,92.50
2023-03-15T11:38:03.135Z,79.50
2023-03-15T11:43:51.976Z,78.80
2023-03-15T11:49:01.390Z,49.10
2023-03-15T11:54:17.358Z,67.90
2023-03-15T11:59:33.751Z,56.60
2023-03-15T12:04:36.448Z,72.60
2023-03-15T12:09:45.870Z,85.50
2023-03-15T12:14:48.494Z,54.40
2023-03-15T12:20:20.225Z,71.10
2023-03-15T12:25:33.863Z,99.90
2023-03-15T12:30:57.117Z,96.90
2023-03-15T12:36:16.397Z,78.90
2023-03-15T12:41:50.080Z,81.60
2023-03-15T12:46:52.631Z,92.50
2023-03-15T12:51:59.826Z,92.70
2023-03-15T12:57:05.050Z,90.00
2023-03-15T13:02:41.721Z,73.40
2023-03-15T13:07:58.595Z,79.60
2023-03-15T13:13:08.344Z,78.80
2023-03-15T13:18:35.028Z,77.70
2023-03-15T13:23:37.867Z,79.40
2023-03-15T13:28:58.386Z,83.30
2023-03-15T13:34:24.458Z,95.00
2023-03-15T13:39:30.630Z,98.80
2023-03-15T13:44:33.951Z,99.90
2023-03-15T13:49:36.453Z,99.90
2023-03-15T13:54:40.234Z,99.90
2023-03-15T14:00:02.047Z,99.90
2023-03-15T14:05:11.096Z,99.90
2023-03-15T14:10:34.639Z,99.90
2023-03-15T14:15:43.094Z,99.90
2023-03-15T14:20:47.976Z,99.90
2023-03-15T14:25:55.756Z,99.00
2023-03-15T14:30:59.861Z,99.90
2023-03-15T14:36:05.582Z,99.90
2023-03-15T14:41:33.313Z,99.90
2023-03-15T14:46:36.411Z,93.00
2023-03-15T14:51:38.907Z,97.90
2023-03-15T14:56:44.373Z,90.10
2023-03-15T15:01:51.709Z,92.50
2023-03-15T15:06:56.009Z,97.50
2023-03-15T15:11:58.698Z,84.80
2023-03-15T15:17:01.312Z,95.50
2023-03-15T15:22:04.080Z,91.40
2023-03-15T15:27:09.597Z,93.10
2023-03-15T15:32:12.058Z,97.90
2023-03-15T15:37:15.524Z,99.90
2023-03-15T15:42:18.240Z,90.60
2023-03-15T15:47:20.964Z,95.50
2023-03-15T15:52:23.430Z,94.50
2023-03-15T15:57:26.651Z,97.80
2023-03-15T16:02:29.428Z,99.90
2023-03-15T16:07:32.052Z,86.40
2023-03-15T16:12:35.695Z,84.30
2023-03-15T16:17:38.829Z,94.30
2023-03-15T16:22:45.564Z,96.10
2023-03-15T16:27:48.139Z,67.60
2023-03-15T16:32:55.231Z,79.10
2023-03-15T16:37:59.035Z,90.30
2023-03-15T16:43:01.768Z,91.80
2023-03-15T16:48:04.782Z,91.10
2023-03-15T16:53:10.151Z,90.70
2023-03-15T16:58:21.949Z,93.10
2023-03-15T17:03:25.791Z,93.00
2023-03-15T17:08:28.526Z,99.90
2023-03-15T17:13:32.910Z,93.80
2023-03-15T17:18:35.695Z,99.90
2023-03-15T17:23:38.399Z,99.90
2023-03-15T17:34:02.561Z,99.90
2023-03-15T17:39:09.772Z,91.90
2023-03-15T17:44:12.343Z,90.50
2023-03-15T17:49:16.325Z,93.50
2023-03-15T17:54:20.821Z,95.90
2023-03-15T17:59:23.487Z,98.40
2023-03-15T18:04:26.083Z,98.90
2023-03-15T18:09:28.846Z,99.90
2023-03-15T18:14:37.271Z,99.90
2023-03-15T18:19:39.923Z,99.90
2023-03-15T18:24:42.470Z,99.90
2023-03-15T18:29:44.966Z,99.90
2023-03-15T18:34:47.552Z,99.90
2023-03-15T18:39:50.195Z,99.90
2023-03-15T18:44:52.677Z,99.90
2023-03-15T18:50:00.999Z,99.90
2023-03-15T18:55:08.653Z,99.90
2023-03-15T19:00:14.395Z,99.90
2023-03-15T19:05:17.717Z,99.90
2023-03-15T19:10:21.660Z,99.90
2023-03-15T19:15:24.389Z,99.90
2023-03-15T19:20:26.995Z,99.90
2023-03-15T19:25:29.590Z,99.90
2023-03-15T19:30:32.681Z,99.90
2023-03-15T19:35:35.508Z,99.90
2023-03-15T19:40:38.874Z,99.90
2023-03-15T19:45:41.819Z,99.90
2023-03-15T19:50:44.518Z,99.90
2023-03-15T19:55:47.091Z,99.90
2023-03-15T20:00:50.514Z,99.90
2023-03-15T20:05:53.093Z,99.90
2023-03-15T20:11:04.033Z,99.90
2023-03-15T20:16:07.394Z,99.90
2023-03-15T20:21:10.303Z,99.90
2023-03-15T20:26:15.796Z,99.90
2023-03-15T20:31:19.529Z,99.90
2023-03-15T20:36:22.399Z,99.90
2023-03-15T20:41:24.923Z,99.90
2023-03-15T20:46:27.677Z,99.90
2023-03-15T20:51:30.330Z,99.90
2023-03-15T20:56:34.290Z,99.90
2023-03-15T21:01:36.874Z,99.90
2023-03-15T21:06:39.400Z,99.90
2023-03-15T21:11:42.902Z,99.90
2023-03-15T21:16:45.455Z,99.90
2023-03-15T21:21:48.176Z,99.90
2023-03-15T21:26:54.731Z,99.90
2023-03-15T21:31:58.622Z,99.90
2023-03-15T21:37:02.511Z,99.90
2023-03-15T21:42:05.702Z,99.90
2023-03-15T21:47:08.298Z,99.90
2023-03-15T21:52:12.433Z,99.90
2023-03-15T21:57:15.017Z,99.90
2023-03-15T22:02:17.798Z,99.90
2023-03-15T22:07:20.494Z,99.90
2023-03-15T22:12:25.404Z,99.90
2023-03-15T22:17:29.276Z,99.90
2023-03-15T22:22:31.904Z,99.90
2023-03-15T22:27:34.495Z,99.90
2023-03-15T22:32:37.011Z,99.90
2023-03-15T22:37:39.718Z,99.90
2023-03-15T22:42:43.386Z,99.90
2023-03-15T22:47:46.345Z,99.90
2023-03-15T22:52:51.819Z,99.90
2023-03-15T22:57:54.561Z,99.90
2023-03-15T23:02:57.115Z,99.90
2023-03-15T23:07:59.646Z,99.90
2023-03-15T23:13:03.776Z,99.90
2023-03-15T23:18:06.623Z,99.90
2023-03-15T23:23:09.271Z,99.90
2023-03-15T23:28:11.846Z,99.90
2023-03-15T23:33:14.348Z,99.90
2023-03-15T23:38:16.899Z,99.90
2023-03-15T23:43:19.350Z,99.90
2023-03-15T23:48:22.286Z,99.90
2023-03-15T23:53:26.000Z,99.90
2023-03-15T23:58:29.328Z,99.90
